Time;durP1;ratioP1;P1;durP2;ratioP2;P2;SDS_P1;SDS_P2;PMS_P1;PMS_P2;Temp;Humidity;BMP_temperature;BMP_pressure;BME280_temperature;BME280_humidity;BME280_pressure;Samples;Min_cycle;Max_cycle;Signal;HPM_P1;HPM_P2
2021/12/17 00:00:57;;;;;;;;;;;0.60;99.90;;;;;;5031637;28;19917;-69
2021/12/17 00:03:33;;;;;;;;;;;1.40;99.90;;;;;;5033993;28;19906;-67
2021/12/17 00:06:47;;;;;;;;;;;1.90;99.90;;;;;;5033829;28;19912;-68
2021/12/17 00:08:52;;;;;;;;;;;1.10;99.90;;;;;;5029756;28;19939;-68
2021/12/17 00:11:20;;;;;;;;;;;1.50;99.90;;;;;;5033356;28;20043;-67
2021/12/17 00:13:46;;;;;;;;;;;1.40;99.90;;;;;;5033467;28;19905;-68
2021/12/17 00:16:19;;;;;;;;;;;1.20;99.90;;;;;;5033183;28;19905;-68
2021/12/17 00:19:34;;;;;;;;;;;1.80;99.90;;;;;;5032874;28;19909;-69
2021/12/17 00:48:52;;;;;;;;;;;1.70;99.90;;;;;;5031784;28;20325;-68
2021/12/17 00:53:45;;;;;;;;;;;2.80;99.90;;;;;;5032699;28;19906;-68
2021/12/17 00:56:11;;;;;;;;;;;2.20;99.90;;;;;;5032832;28;19912;-69
2021/12/17 00:58:36;;;;;;;;;;;2.70;99.90;;;;;;5031685;28;19905;-67
2021/12/17 01:01:02;;;;;;;;;;;2.20;99.90;;;;;;5032099;28;20307;-69
2021/12/17 01:03:27;;;;;;;;;;;1.90;99.90;;;;;;5031537;28;19905;-69
2021/12/17 01:05:53;;;;;;;;;;;1.70;99.90;;;;;;5033035;28;19905;-69
2021/12/17 01:08:18;;;;;;;;;;;2.10;99.90;;;;;;5035713;28;19951;-70
2021/12/17 01:10:46;;;;;;;;;;;2.90;99.90;;;;;;5032754;28;19909;-69
2021/12/17 01:13:11;;;;;;;;;;;3.20;99.90;;;;;;5033405;28;19909;-67
2021/12/17 01:15:38;;;;;;;;;;;2.50;99.90;;;;;;5034068;28;19931;-68
2021/12/17 01:18:09;;;;;;;;;;;;;;;;;;5032433;28;19945;-67
2021/12/17 01:23:30;;;;;;;;;;;3.00;99.90;;;;;;5032174;28;20335;-68
2021/12/17 01:36:24;;;;;;;;;;;1.50;99.90;;;;;;5020210;28;19952;-69
2021/12/17 01:40:04;;;;;;;;;;;1.90;99.90;;;;;;5030003;28;20331;-68
2021/12/17 01:42:04;;;;;;;;;;;2.70;99.90;;;;;;5031825;28;20498;-68
2021/12/17 01:44:30;;;;;;;;;;;2.60;99.90;;;;;;5032175;28;19905;-69
2021/12/17 01:46:56;;;;;;;;;;;2.10;99.90;;;;;;5014044;28;19911;-69
2021/12/17 02:00:05;;;;;;;;;;;2.00;99.90;;;;;;5030641;28;19917;-69
2021/12/17 02:02:34;;;;;;;;;;;2.80;99.90;;;;;;5031761;28;19963;-69
2021/12/17 02:04:59;;;;;;;;;;;2.60;99.90;;;;;;5031747;28;19931;-69
2021/12/17 02:07:25;;;;;;;;;;;3.40;99.90;;;;;;5031711;28;19905;-69
2021/12/17 02:33:39;;;;;;;;;;;2.90;99.90;;;;;;5035149;28;19992;-67
2021/12/17 02:36:06;;;;;;;;;;;2.50;99.90;;;;;;5035339;28;20075;-67
2021/12/17 02:38:35;;;;;;;;;;;1.60;99.90;;;;;;5034414;28;19916;-69
2021/12/17 02:46:32;;;;;;;;;;;3.90;99.90;;;;;;5034258;28;19912;-69
2021/12/17 02:48:58;;;;;;;;;;;2.70;99.90;;;;;;5033378;28;19905;-68
2021/12/17 02:51:24;;;;;;;;;;;2.60;99.90;;;;;;5034340;28;19917;-67
2021/12/17 02:53:50;;;;;;;;;;;3.10;99.90;;;;;;5035748;28;19909;-69
2021/12/17 02:56:15;;;;;;;;;;;2.90;99.90;;;;;;5034973;28;19912;-68
2021/12/17 02:58:41;;;;;;;;;;;;;;;;;;5034169;28;19905;-68
2021/12/17 03:01:07;;;;;;;;;;;;;;;;;;5034605;28;20329;-68
2021/12/17 03:03:35;;;;;;;;;;;2.10;99.90;;;;;;5034606;28;19905;-69
2021/12/17 03:06:01;;;;;;;;;;;2.00;99.90;;;;;;5034596;28;19916;-68
2021/12/17 03:08:29;;;;;;;;;;;2.80;99.90;;;;;;5033637;28;19917;-69
2021/12/17 03:10:54;;;;;;;;;;;2.90;99.90;;;;;;5034800;28;19999;-68
2021/12/17 03:13:22;;;;;;;;;;;3.70;99.90;;;;;;5034610;28;19997;-69
2021/12/17 03:15:56;;;;;;;;;;;2.20;99.90;;;;;;5034075;28;19912;-68
2021/12/17 03:23:44;;;;;;;;;;;;;;;;;;5033852;28;19912;-67
2021/12/17 03:26:13;;;;;;;;;;;1.50;99.90;;;;;;5034367;28;19905;-67
2021/12/17 03:28:40;;;;;;;;;;;2.50;99.90;;;;;;5036161;28;19906;-69
2021/12/17 03:31:06;;;;;;;;;;;2.80;99.90;;;;;;5040447;28;19909;-68
2021/12/17 03:33:32;;;;;;;;;;;2.80;99.90;;;;;;5036618;28;19909;-68
2021/12/17 03:36:00;;;;;;;;;;;2.30;99.90;;;;;;5034055;28;19912;-68
2021/12/17 03:38:26;;;;;;;;;;;2.50;99.90;;;;;;5033589;28;19909;-67
2021/12/17 03:41:03;;;;;;;;;;;3.00;99.90;;;;;;5044276;28;19897;-67
2021/12/17 03:43:30;;;;;;;;;;;3.90;99.90;;;;;;5036036;28;19916;-68
2021/12/17 03:45:56;;;;;;;;;;;2.50;99.90;;;;;;5015450;28;19905;-69
2021/12/17 03:48:22;;;;;;;;;;;2.70;99.90;;;;;;5033057;28;19917;-67
2021/12/17 03:50:48;;;;;;;;;;;2.70;99.90;;;;;;5025776;28;20010;-70
2021/12/17 03:53:13;;;;;;;;;;;2.80;99.90;;;;;;5033662;28;19919;-68
2021/12/17 03:55:39;;;;;;;;;;;3.80;99.90;;;;;;5033562;28;19905;-67
2021/12/17 03:58:04;;;;;;;;;;;3.20;99.90;;;;;;5032946;28;19909;-69
2021/12/17 04:00:30;;;;;;;;;;;3.00;99.90;;;;;;5015319;28;19913;-69
2021/12/17 04:02:56;;;;;;;;;;;3.90;99.90;;;;;;5034016;28;19905;-69
2021/12/17 04:05:22;;;;;;;;;;;2.90;99.90;;;;;;5033524;28;20359;-70
2021/12/17 04:07:47;;;;;;;;;;;3.80;99.90;;;;;;5032993;28;19937;-68
2021/12/17 04:10:13;;;;;;;;;;;3.40;99.90;;;;;;5033916;28;19916;-67
2021/12/17 04:12:53;;;;;;;;;;;2.90;99.90;;;;;;5033397;28;19916;-69
2021/12/17 04:15:18;;;;;;;;;;;3.80;99.90;;;;;;5033390;28;20271;-69
2021/12/17 04:17:52;;;;;;;;;;;3.40;99.90;;;;;;5033456;28;19916;-69
2021/12/17 04:20:17;;;;;;;;;;;3.70;99.90;;;;;;5033105;28;19956;-69
2021/12/17 04:22:43;;;;;;;;;;;2.70;99.90;;;;;;5033152;28;19952;-68
2021/12/17 04:25:08;;;;;;;;;;;3.60;99.90;;;;;;5033234;28;20417;-68
2021/12/17 04:27:34;;;;;;;;;;;3.40;99.90;;;;;;5032939;28;19982;-69
2021/12/17 04:30:00;;;;;;;;;;;;;;;;;;5032217;28;19936;-69
2021/12/17 04:32:25;;;;;;;;;;;3.00;99.90;;;;;;5032671;28;19916;-67
2021/12/17 04:34:51;;;;;;;;;;;4.10;99.90;;;;;;5032364;28;19905;-67
2021/12/17 04:37:17;;;;;;;;;;;3.30;99.90;;;;;;5032951;28;19904;-69
2021/12/17 04:39:42;;;;;;;;;;;3.50;99.90;;;;;;5032925;28;20401;-68
2021/12/17 04:42:37;;;;;;;;;;;3.30;99.90;;;;;;5032712;28;19995;-69
2021/12/17 04:45:03;;;;;;;;;;;3.60;99.90;;;;;;5033044;28;20302;-69
2021/12/17 04:58:26;;;;;;;;;;;4.00;99.90;;;;;;5020050;28;20051;-68
2021/12/17 05:00:52;;;;;;;;;;;3.50;99.90;;;;;;5060803;22;19924;-63
2021/12/17 05:03:18;;;;;;;;;;;2.70;99.90;;;;;;5049530;28;19935;-63
2021/12/17 05:05:44;;;;;;;;;;;4.40;99.90;;;;;;5042568;28;19964;-62
2021/12/17 05:08:14;;;;;;;;;;;4.30;99.90;;;;;;5031446;28;19908;-63
2021/12/17 05:11:00;;;;;;;;;;;2.60;99.90;;;;;;5032266;28;19905;-62
2021/12/17 05:21:22;;;;;;;;;;;3.70;99.90;;;;;;5051885;28;19913;-63
2021/12/17 05:23:51;;;;;;;;;;;4.80;99.90;;;;;;5051779;28;20007;-63
2021/12/17 05:26:17;;;;;;;;;;;;;;;;;;5052107;28;19958;-63
2021/12/17 05:28:43;;;;;;;;;;;3.40;99.90;;;;;;5042778;28;19909;-69
2021/12/17 05:31:08;;;;;;;;;;;3.20;99.90;;;;;;5051242;28;19905;-69
2021/12/17 05:33:34;;;;;;;;;;;3.80;99.90;;;;;;5051760;28;20034;-69
2021/12/17 05:35:59;;;;;;;;;;;3.60;99.90;;;;;;5051808;28;19908;-68
2021/12/17 05:38:26;;;;;;;;;;;3.80;99.90;;;;;;5051200;28;19943;-69
2021/12/17 05:40:52;;;;;;;;;;;3.80;99.90;;;;;;5042911;28;19916;-68
2021/12/17 05:43:18;;;;;;;;;;;4.10;99.90;;;;;;5052105;28;19905;-68
2021/12/17 05:48:22;;;;;;;;;;;3.10;99.90;;;;;;5045991;28;19913;-68
2021/12/17 05:50:51;;;;;;;;;;;4.90;99.90;;;;;;5037884;28;20359;-68
2021/12/17 05:53:17;;;;;;;;;;;3.80;99.90;;;;;;5038733;28;19915;-68
2021/12/17 05:55:43;;;;;;;;;;;3.20;99.90;;;;;;5038394;28;19912;-68
2021/12/17 05:58:08;;;;;;;;;;;3.80;99.90;;;;;;5037607;28;19905;-68
2021/12/17 06:00:34;;;;;;;;;;;3.60;99.90;;;;;;5044552;28;19912;-68
2021/12/17 06:03:01;;;;;;;;;;;3.50;99.90;;;;;;5058485;28;19904;-69
2021/12/17 06:05:27;;;;;;;;;;;3.70;99.90;;;;;;5058339;28;19905;-69
2021/12/17 06:07:53;;;;;;;;;;;2.90;99.90;;;;;;5057796;28;19911;-68
2021/12/17 06:10:19;;;;;;;;;;;3.70;99.90;;;;;;5057982;28;19905;-68
2021/12/17 06:12:45;;;;;;;;;;;3.80;99.90;;;;;;5058438;28;19937;-68
2021/12/17 06:15:12;;;;;;;;;;;3.80;99.90;;;;;;5057803;28;20385;-68
2021/12/17 06:17:38;;;;;;;;;;;3.80;99.90;;;;;;5058640;28;20283;-69
2021/12/17 06:20:04;;;;;;;;;;;3.30;99.90;;;;;;5057269;28;19905;-71
2021/12/17 06:22:29;;;;;;;;;;;4.50;99.90;;;;;;5039800;28;19917;-69
2021/12/17 06:24:58;;;;;;;;;;;3.50;99.90;;;;;;5057981;28;19920;-69
2021/12/17 06:27:23;;;;;;;;;;;3.80;99.90;;;;;;5058043;28;19905;-68
2021/12/17 06:29:49;;;;;;;;;;;3.80;99.90;;;;;;5056018;28;19935;-69
2021/12/17 06:32:15;;;;;;;;;;;3.50;99.90;;;;;;5038063;28;20015;-68
2021/12/17 06:34:40;;;;;;;;;;;2.80;99.90;;;;;;5037969;28;19916;-69
2021/12/17 06:37:06;;;;;;;;;;;3.20;99.90;;;;;;5038245;28;19909;-68
2021/12/17 06:39:32;;;;;;;;;;;3.50;99.90;;;;;;5037229;28;19911;-68
2021/12/17 06:41:58;;;;;;;;;;;3.50;99.90;;;;;;5037857;28;19931;-69
2021/12/17 06:44:24;;;;;;;;;;;3.60;99.90;;;;;;5036485;28;19905;-69
2021/12/17 06:49:29;;;;;;;;;;;3.50;99.90;;;;;;5037076;28;20323;-68
2021/12/17 06:55:10;;;;;;;;;;;3.20;99.90;;;;;;5034020;28;19959;-68
2021/12/17 07:01:06;;;;;;;;;;;3.30;99.90;;;;;;5046201;28;19908;-68
2021/12/17 07:06:00;;;;;;;;;;;3.00;99.90;;;;;;5054118;28;20506;-68
2021/12/17 07:33:15;;;;;;;;;;;2.60;99.90;;;;;;5054072;28;19931;-68
2021/12/17 07:35:53;;;;;;;;;;;2.50;99.90;;;;;;5053443;28;19928;-66
2021/12/17 07:41:01;;;;;;;;;;;2.70;99.90;;;;;;5053748;28;19915;-68
2021/12/17 07:43:30;;;;;;;;;;;3.20;99.90;;;;;;5042232;28;19916;-68
2021/12/17 07:45:57;;;;;;;;;;;3.80;99.90;;;;;;5046993;28;19908;-68
2021/12/17 07:48:23;;;;;;;;;;;4.50;99.90;;;;;;5044867;28;19999;-68
2021/12/17 07:50:49;;;;;;;;;;;5.00;99.90;;;;;;5052697;28;19909;-69
2021/12/17 07:53:15;;;;;;;;;;;4.60;99.90;;;;;;5047792;28;19912;-69
2021/12/17 07:55:40;;;;;;;;;;;5.00;99.90;;;;;;5043041;28;19904;-68
2021/12/17 07:58:06;;;;;;;;;;;4.80;99.90;;;;;;5052967;28;19909;-69
2021/12/17 08:00:32;;;;;;;;;;;5.80;99.90;;;;;;5053220;28;20713;-70
2021/12/17 08:02:57;;;;;;;;;;;5.70;99.90;;;;;;5053677;28;19908;-71
2021/12/17 08:05:23;;;;;;;;;;;6.80;99.90;;;;;;5053663;28;19905;-70
2021/12/17 08:07:49;;;;;;;;;;;7.30;99.90;;;;;;5053054;28;19905;-69
2021/12/17 08:10:14;;;;;;;;;;;7.70;99.90;;;;;;5053489;28;19916;-70
2021/12/17 08:12:40;;;;;;;;;;;8.60;99.90;;;;;;5053491;28;20321;-69
2021/12/17 08:15:09;;;;;;;;;;;9.50;99.90;;;;;;5053179;28;19915;-70
2021/12/17 08:28:16;;;;;;;;;;;8.90;99.90;;;;;;5052228;28;19905;-69
2021/12/17 08:30:42;;;;;;;;;;;8.60;99.90;;;;;;5042300;28;20382;-70
2021/12/17 08:33:08;;;;;;;;;;;8.60;99.90;;;;;;5052833;28;19911;-70
2021/12/17 08:35:34;;;;;;;;;;;8.30;99.90;;;;;;5052770;28;19936;-70
2021/12/17 08:38:03;;;;;;;;;;;8.50;99.90;;;;;;5052357;28;19915;-69
2021/12/17 08:40:30;;;;;;;;;;;8.10;99.90;;;;;;5052920;28;20267;-69
2021/12/17 08:42:55;;;;;;;;;;;7.80;99.90;;;;;;5034918;28;19908;-69
2021/12/17 08:45:21;;;;;;;;;;;7.50;99.90;;;;;;5052722;28;19909;-69
2021/12/17 08:47:47;;;;;;;;;;;7.40;99.90;;;;;;5052786;28;20271;-69
2021/12/17 08:50:14;;;;;;;;;;;7.40;99.90;;;;;;5052467;28;19936;-70
2021/12/17 08:52:40;;;;;;;;;;;7.10;99.90;;;;;;5053180;28;19947;-70
2021/12/17 08:55:07;;;;;;;;;;;7.80;99.90;;;;;;5053363;28;19905;-69
2021/12/17 08:57:32;;;;;;;;;;;7.20;99.90;;;;;;5052916;28;19912;-70
2021/12/17 09:00:04;;;;;;;;;;;6.90;99.90;;;;;;5066467;28;19909;-70
2021/12/17 09:02:29;;;;;;;;;;;7.30;99.90;;;;;;5073954;28;19958;-70
2021/12/17 09:04:55;;;;;;;;;;;7.00;99.90;;;;;;5057464;28;20359;-69
2021/12/17 09:07:20;;;;;;;;;;;5.30;99.90;;;;;;5035004;28;19919;-69
2021/12/17 09:09:47;;;;;;;;;;;7.70;99.90;;;;;;5052042;28;19991;-72
2021/12/17 09:12:13;;;;;;;;;;;7.80;99.90;;;;;;5052350;28;20441;-70
2021/12/17 09:14:39;;;;;;;;;;;6.70;99.90;;;;;;5034497;28;20015;-68
2021/12/17 09:17:04;;;;;;;;;;;8.30;99.90;;;;;;5051370;28;19905;-70
2021/12/17 09:19:30;;;;;;;;;;;7.10;99.90;;;;;;5051253;28;19904;-70
2021/12/17 09:21:55;;;;;;;;;;;7.70;99.90;;;;;;5051962;28;19908;-71
2021/12/17 09:24:21;;;;;;;;;;;7.60;99.90;;;;;;5052258;28;19912;-77
2021/12/17 09:26:46;;;;;;;;;;;8.00;99.90;;;;;;5052508;28;19904;-68
2021/12/17 09:29:12;;;;;;;;;;;8.70;99.90;;;;;;5052083;28;19936;-70
2021/12/17 09:31:37;;;;;;;;;;;9.10;99.90;;;;;;5052149;28;20030;-70
2021/12/17 09:34:03;;;;;;;;;;;9.70;99.90;;;;;;5052392;28;19947;-69
2021/12/17 09:36:29;;;;;;;;;;;11.30;99.90;;;;;;5052233;28;20446;-69
2021/12/17 09:38:54;;;;;;;;;;;11.80;99.90;;;;;;5033913;28;19909;-69
2021/12/17 09:41:21;;;;;;;;;;;12.50;99.90;;;;;;5050048;28;20050;-67
2021/12/17 09:43:47;;;;;;;;;;;12.80;99.90;;;;;;5051149;28;19908;-67
2021/12/17 09:46:12;;;;;;;;;;;13.70;99.90;;;;;;5051527;28;19904;-66
2021/12/17 09:48:38;;;;;;;;;;;14.00;99.90;;;;;;5051369;28;19912;-68
2021/12/17 09:51:05;;;;;;;;;;;14.70;99.90;;;;;;5052335;28;19924;-66
2021/12/17 09:53:31;;;;;;;;;;;15.00;99.90;;;;;;5052277;28;19927;-70
2021/12/17 09:55:56;;;;;;;;;;;14.40;99.90;;;;;;5051670;28;20363;-66
2021/12/17 09:58:22;;;;;;;;;;;15.00;99.90;;;;;;5051668;28;19943;-65
2021/12/17 10:00:48;;;;;;;;;;;14.30;99.90;;;;;;5050804;28;19923;-65
2021/12/17 10:03:13;;;;;;;;;;;12.60;99.90;;;;;;5052259;28;19931;-64
2021/12/17 10:05:39;;;;;;;;;;;13.60;99.90;;;;;;5052099;28;19912;-66
2021/12/17 10:08:06;;;;;;;;;;;13.60;99.90;;;;;;5051726;28;19912;-67
2021/12/17 10:10:42;;;;;;;;;;;13.50;99.90;;;;;;5051823;28;19908;-65
2021/12/17 10:13:09;;;;;;;;;;;12.90;99.90;;;;;;5052102;28;19909;-67
2021/12/17 10:15:37;;;;;;;;;;;13.00;99.90;;;;;;5052842;28;20368;-65
2021/12/17 10:18:02;;;;;;;;;;;13.10;99.90;;;;;;5053268;28;19905;-66
2021/12/17 10:20:30;;;;;;;;;;;12.30;99.90;;;;;;5052685;28;19908;-66
2021/12/17 10:22:55;;;;;;;;;;;13.00;99.90;;;;;;5031992;28;19908;-67
2021/12/17 10:25:21;;;;;;;;;;;13.20;99.90;;;;;;5051741;28;19914;-64
2021/12/17 10:27:47;;;;;;;;;;;13.30;99.90;;;;;;5051639;28;19905;-71
2021/12/17 10:30:19;;;;;;;;;;;12.80;99.90;;;;;;5050538;28;19958;-64
2021/12/17 10:32:46;;;;;;;;;;;11.90;99.90;;;;;;5054745;28;19984;-64
2021/12/17 10:35:15;;;;;;;;;;;12.80;99.90;;;;;;5056608;28;19908;-66
2021/12/17 10:37:42;;;;;;;;;;;12.90;99.90;;;;;;5052394;28;19909;-66
2021/12/17 10:40:35;;;;;;;;;;;14.00;99.90;;;;;;5048643;28;19909;-68
2021/12/17 10:43:07;;;;;;;;;;;14.80;99.90;;;;;;5044714;28;19909;-66
2021/12/17 10:45:46;;;;;;;;;;;15.50;99.80;;;;;;5069130;28;19905;-65
2021/12/17 10:51:07;;;;;;;;;;;16.30;98.00;;;;;;5067298;28;19912;-65
2021/12/17 10:53:32;;;;;;;;;;;17.00;94.70;;;;;;5066712;28;19908;-65
2021/12/17 10:55:59;;;;;;;;;;;16.70;95.30;;;;;;5065010;28;19970;-64
2021/12/17 10:58:25;;;;;;;;;;;17.80;92.40;;;;;;5056036;28;19905;-65
2021/12/17 11:00:56;;;;;;;;;;;18.80;92.60;;;;;;5038533;28;19916;-65
2021/12/17 11:03:22;;;;;;;;;;;19.50;91.40;;;;;;5056189;28;19932;-64
2021/12/17 11:05:48;;;;;;;;;;;19.10;90.10;;;;;;5055493;28;20286;-66
2021/12/17 11:08:33;;;;;;;;;;;19.30;89.50;;;;;;5090986;22;20470;-73
2021/12/17 11:11:11;;;;;;;;;;;20.70;90.10;;;;;;5086091;28;19908;-72
2021/12/17 11:13:37;;;;;;;;;;;19.70;88.50;;;;;;5093983;28;20305;-71
2021/12/17 11:16:03;;;;;;;;;;;19.50;87.40;;;;;;5093952;28;20329;-72
2021/12/17 11:18:29;;;;;;;;;;;20.10;86.60;;;;;;5093389;28;20442;-72
2021/12/17 11:20:56;;;;;;;;;;;19.80;85.80;;;;;;5094036;28;19912;-72
2021/12/17 11:23:23;;;;;;;;;;;19.80;84.50;;;;;;5063969;28;19905;-71
2021/12/17 11:25:49;;;;;;;;;;;19.10;84.80;;;;;;5053880;28;19909;-74
2021/12/17 11:28:15;;;;;;;;;;;18.10;88.80;;;;;;5035058;28;20062;-69
2021/12/17 11:30:43;;;;;;;;;;;18.70;88.90;;;;;;5053865;28;19930;-70
2021/12/17 11:33:08;;;;;;;;;;;17.40;90.40;;;;;;5053647;28;19909;-72
2021/12/17 11:35:35;;;;;;;;;;;17.30;89.30;;;;;;5053303;28;20442;-72
2021/12/17 11:38:03;;;;;;;;;;;18.30;88.10;;;;;;5052646;28;20357;-71
2021/12/17 11:40:48;;;;;;;;;;;18.60;87.90;;;;;;5053238;28;19916;-71
2021/12/17 11:43:35;;;;;;;;;;;18.10;87.10;;;;;;5053018;28;19913;-73
2021/12/17 11:46:02;;;;;;;;;;;18.50;85.40;;;;;;5053215;28;19905;-76
2021/12/17 11:48:30;;;;;;;;;;;19.20;85.30;;;;;;5052702;28;19915;-74
2021/12/17 11:51:06;;;;;;;;;;;19.50;84.30;;;;;;5053755;28;20381;-77
2021/12/17 11:53:33;;;;;;;;;;;19.60;84.20;;;;;;5053052;28;19915;-71
2021/12/17 11:56:03;;;;;;;;;;;19.30;84.00;;;;;;5052316;28;19912;-71
2021/12/17 11:58:49;;;;;;;;;;;18.60;86.10;;;;;;5052245;28;19915;-72
2021/12/17 12:01:33;;;;;;;;;;;18.40;86.50;;;;;;5052814;28;19966;-71
2021/12/17 12:03:59;;;;;;;;;;;;;;;;;;5051973;28;19909;-71
2021/12/17 12:06:34;;;;;;;;;;;17.90;83.80;;;;;;5052157;28;19908;-73
2021/12/17 12:09:04;;;;;;;;;;;18.20;86.10;;;;;;5051053;28;19965;-71
2021/12/17 12:11:30;;;;;;;;;;;18.50;86.60;;;;;;5052432;28;19958;-72
2021/12/17 12:13:55;;;;;;;;;;;18.10;86.80;;;;;;5052446;28;20483;-73
2021/12/17 12:16:26;;;;;;;;;;;16.10;89.30;;;;;;5052383;28;19964;-72
2021/12/17 12:18:54;;;;;;;;;;;14.40;91.80;;;;;;5051670;28;19915;-72
2021/12/17 12:21:21;;;;;;;;;;;14.50;94.10;;;;;;5034601;28;19915;-72
2021/12/17 12:23:48;;;;;;;;;;;14.50;94.90;;;;;;5052584;28;19911;-72
2021/12/17 12:26:25;;;;;;;;;;;13.20;95.80;;;;;;5052833;28;19988;-72
2021/12/17 12:28:56;;;;;;;;;;;12.30;96.40;;;;;;5051987;28;20374;-71
2021/12/17 12:31:22;;;;;;;;;;;;;;;;;;5052540;28;19987;-72
2021/12/17 12:34:06;;;;;;;;;;;14.20;96.60;;;;;;5052299;28;20003;-72
2021/12/17 12:36:32;;;;;;;;;;;;;;;;;;5052571;28;19964;-72
2021/12/17 12:39:30;;;;;;;;;;;15.30;94.40;;;;;;5051980;28;20394;-72
2021/12/17 12:41:59;;;;;;;;;;;15.50;92.40;;;;;;5017023;28;19962;-73
2021/12/17 12:44:39;;;;;;;;;;;17.00;91.00;;;;;;5052369;28;19904;-72
2021/12/17 12:47:05;;;;;;;;;;;19.60;88.00;;;;;;5052279;28;20392;-71
2021/12/17 12:49:44;;;;;;;;;;;18.00;88.10;;;;;;5051111;28;19947;-73
2021/12/17 12:52:28;;;;;;;;;;;18.10;86.60;;;;;;5049500;28;19950;-73
2021/12/17 12:54:58;;;;;;;;;;;18.80;87.50;;;;;;5050856;28;19904;-72
2021/12/17 12:57:25;;;;;;;;;;;18.30;85.00;;;;;;5051817;28;19905;-71
2021/12/17 12:59:52;;;;;;;;;;;17.80;86.90;;;;;;5051198;28;20254;-70
2021/12/17 13:02:18;;;;;;;;;;;18.10;86.00;;;;;;5050275;28;19955;-69
2021/12/17 13:04:45;;;;;;;;;;;18.50;82.70;;;;;;5051528;28;20400;-68
2021/12/17 13:07:12;;;;;;;;;;;18.40;85.00;;;;;;5057201;28;19904;-68
2021/12/17 13:09:42;;;;;;;;;;;19.20;82.70;;;;;;5052162;28;19916;-70
2021/12/17 13:12:08;;;;;;;;;;;19.90;80.30;;;;;;5051413;28;19915;-73
2021/12/17 13:14:41;;;;;;;;;;;19.20;82.70;;;;;;5065537;28;19904;-73
2021/12/17 13:17:29;;;;;;;;;;;19.10;82.80;;;;;;5071694;28;19943;-73
2021/12/17 13:22:54;;;;;;;;;;;18.50;85.10;;;;;;5071617;28;19916;-74
2021/12/17 13:25:27;;;;;;;;;;;18.50;86.60;;;;;;5071365;28;19904;-74
2021/12/17 13:27:53;;;;;;;;;;;18.70;86.30;;;;;;5070882;28;19983;-73
2021/12/17 13:30:25;;;;;;;;;;;19.70;85.00;;;;;;5071325;28;19954;-74
2021/12/17 13:32:52;;;;;;;;;;;18.50;84.80;;;;;;5060962;28;19908;-75
2021/12/17 13:35:17;;;;;;;;;;;19.40;85.80;;;;;;5063818;28;20362;-74
2021/12/17 13:37:43;;;;;;;;;;;17.70;85.00;;;;;;5053834;28;19991;-74
2021/12/17 13:40:09;;;;;;;;;;;17.80;87.60;;;;;;5050115;28;19912;-73
2021/12/17 13:42:36;;;;;;;;;;;18.00;86.20;;;;;;5051195;28;20385;-74
2021/12/17 13:45:09;;;;;;;;;;;17.70;88.10;;;;;;5051318;28;20359;-74
2021/12/17 13:47:34;;;;;;;;;;;17.80;87.10;;;;;;5061945;28;19915;-74
2021/12/17 13:50:00;;;;;;;;;;;18.00;88.00;;;;;;5071386;28;20301;-73
2021/12/17 13:52:27;;;;;;;;;;;17.50;89.00;;;;;;5084571;28;19904;-73
2021/12/17 13:54:53;;;;;;;;;;;15.80;89.10;;;;;;5083733;28;20416;-76
2021/12/17 13:57:21;;;;;;;;;;;18.50;90.10;;;;;;5073611;28;19916;-80
2021/12/17 13:59:46;;;;;;;;;;;16.10;90.10;;;;;;5076863;28;19904;-79
2021/12/17 14:02:14;;;;;;;;;;;16.70;90.60;;;;;;5075808;28;19915;-81
2021/12/17 14:04:40;;;;;;;;;;;16.20;91.50;;;;;;5069109;28;19905;-80
2021/12/17 14:07:10;;;;;;;;;;;15.70;91.90;;;;;;5075141;28;20329;-81
2021/12/17 14:09:36;;;;;;;;;;;13.60;93.60;;;;;;5077024;28;19912;-81
2021/12/17 14:12:23;;;;;;;;;;;14.60;93.50;;;;;;5076514;28;19904;-80
2021/12/17 14:14:55;;;;;;;;;;;14.70;93.10;;;;;;5059614;28;19914;-80
2021/12/17 14:17:21;;;;;;;;;;;14.40;93.60;;;;;;5080220;28;19904;-80
2021/12/17 14:19:47;;;;;;;;;;;15.10;94.40;;;;;;5082614;28;19935;-80
2021/12/17 14:22:38;;;;;;;;;;;14.20;94.40;;;;;;5083046;28;19909;-80
2021/12/17 14:25:24;;;;;;;;;;;13.20;93.10;;;;;;5075129;28;19930;-81
2021/12/17 14:27:50;;;;;;;;;;;;;;;;;;5078768;28;19912;-81
2021/12/17 14:30:16;;;;;;;;;;;14.00;95.30;;;;;;5081577;28;19923;-80
2021/12/17 14:32:42;;;;;;;;;;;12.30;96.80;;;;;;5079867;28;19904;-80
2021/12/17 14:35:09;;;;;;;;;;;12.20;98.20;;;;;;5078874;28;19911;-80
2021/12/17 14:37:46;;;;;;;;;;;11.10;98.90;;;;;;5078351;28;20340;-80
2021/12/17 14:40:31;;;;;;;;;;;11.30;99.90;;;;;;5057149;28;19909;-80
2021/12/17 14:42:58;;;;;;;;;;;12.00;99.90;;;;;;5058579;28;19915;-80
2021/12/17 14:45:36;;;;;;;;;;;10.50;99.90;;;;;;5057499;28;20448;-81
2021/12/17 14:48:29;;;;;;;;;;;9.70;99.90;;;;;;5057533;28;19909;-80
2021/12/17 15:02:12;;;;;;;;;;;9.80;99.90;;;;;;5062024;28;19915;-79
2021/12/17 15:04:37;;;;;;;;;;;9.20;99.90;;;;;;5061132;28;19974;-79
2021/12/17 15:07:03;;;;;;;;;;;9.30;99.90;;;;;;5068308;28;20567;-80
2021/12/17 15:09:31;;;;;;;;;;;8.60;99.90;;;;;;5077887;28;19912;-80
2021/12/17 15:11:59;;;;;;;;;;;8.20;99.90;;;;;;5078043;28;19912;-80
2021/12/17 15:14:25;;;;;;;;;;;10.50;99.90;;;;;;5077455;28;20385;-79
2021/12/17 15:16:50;;;;;;;;;;;8.60;99.90;;;;;;5070671;28;19918;-79
2021/12/17 15:19:16;;;;;;;;;;;8.40;99.90;;;;;;5068730;28;19911;-79
2021/12/17 15:21:41;;;;;;;;;;;7.60;99.90;;;;;;5070683;28;19976;-79
2021/12/17 15:24:09;;;;;;;;;;;8.10;99.90;;;;;;5075584;28;19940;-79
2021/12/17 15:26:34;;;;;;;;;;;7.70;99.90;;;;;;5052410;28;19908;-81
2021/12/17 15:29:00;;;;;;;;;;;7.70;99.90;;;;;;5060705;28;20070;-78
2021/12/17 15:31:25;;;;;;;;;;;8.60;99.90;;;;;;5060742;28;19905;-78
2021/12/17 15:33:51;;;;;;;;;;;8.10;99.90;;;;;;5040618;28;19909;-77
2021/12/17 15:36:16;;;;;;;;;;;8.20;99.90;;;;;;5058184;28;19911;-78
2021/12/17 15:38:42;;;;;;;;;;;7.20;99.90;;;;;;5055514;28;19972;-76
2021/12/17 15:41:07;;;;;;;;;;;7.90;99.90;;;;;;5062686;28;19905;-78
2021/12/17 15:43:33;;;;;;;;;;;8.80;99.90;;;;;;5064953;28;19904;-79
2021/12/17 15:45:58;;;;;;;;;;;7.20;99.90;;;;;;5060605;28;20286;-78
2021/12/17 15:48:24;;;;;;;;;;;7.80;99.90;;;;;;5063559;28;19905;-80
2021/12/17 15:50:50;;;;;;;;;;;6.80;99.90;;;;;;5045840;28;19904;-79
2021/12/17 15:53:16;;;;;;;;;;;8.10;99.90;;;;;;5062879;28;19947;-80
2021/12/17 15:55:43;;;;;;;;;;;7.90;99.90;;;;;;5063672;28;19991;-79
2021/12/17 15:58:09;;;;;;;;;;;7.70;99.90;;;;;;5062611;28;19909;-81
2021/12/17 16:00:36;;;;;;;;;;;9.20;99.90;;;;;;5061236;28;19904;-79
2021/12/17 16:03:02;;;;;;;;;;;8.00;99.90;;;;;;5060202;28;20403;-78
2021/12/17 16:05:29;;;;;;;;;;;7.50;99.90;;;;;;5062304;28;20362;-78
2021/12/17 16:07:56;;;;;;;;;;;8.00;99.90;;;;;;5066538;28;19908;-79
2021/12/17 16:21:12;;;;;;;;;;;8.80;99.90;;;;;;5023288;28;19920;-78
2021/12/17 16:23:46;;;;;;;;;;;7.40;99.90;;;;;;5062425;28;19908;-79
2021/12/17 16:26:12;;;;;;;;;;;8.50;99.90;;;;;;5061674;28;19912;-78
2021/12/17 16:28:38;;;;;;;;;;;7.60;99.90;;;;;;5060351;28;19909;-78
2021/12/17 16:31:08;;;;;;;;;;;7.50;99.90;;;;;;5062230;28;19919;-78
2021/12/17 16:33:34;;;;;;;;;;;7.60;99.90;;;;;;5062262;28;20369;-78
2021/12/17 16:36:02;;;;;;;;;;;7.50;99.90;;;;;;5062004;28;19905;-78
2021/12/17 16:38:28;;;;;;;;;;;7.50;99.90;;;;;;5060149;28;19905;-78
2021/12/17 16:40:54;;;;;;;;;;;;;;;;;;5066625;28;19962;-78
2021/12/17 16:43:19;;;;;;;;;;;7.50;99.90;;;;;;5072771;28;19912;-79
2021/12/17 16:46:02;;;;;;;;;;;7.50;99.90;;;;;;5072265;28;19958;-78
2021/12/17 16:48:28;;;;;;;;;;;7.60;99.90;;;;;;5072727;28;19946;-78
2021/12/17 16:50:54;;;;;;;;;;;;;;;;;;5073682;28;19905;-78
2021/12/17 16:53:19;;;;;;;;;;;7.60;99.90;;;;;;5072119;28;19966;-78
2021/12/17 16:55:45;;;;;;;;;;;7.30;99.90;;;;;;5071936;28;20570;-79
2021/12/17 16:58:10;;;;;;;;;;;7.30;99.90;;;;;;5080677;28;19904;-77
2021/12/17 17:00:36;;;;;;;;;;;7.90;99.90;;;;;;5071014;28;19912;-75
2021/12/17 17:03:03;;;;;;;;;;;7.70;99.90;;;;;;5036771;28;20574;-76
2021/12/17 17:05:29;;;;;;;;;;;7.70;99.90;;;;;;5053023;28;19908;-76
2021/12/17 17:07:55;;;;;;;;;;;;;;;;;;5067847;28;19909;-75
2021/12/17 17:10:21;;;;;;;;;;;8.10;99.90;;;;;;5051655;28;19909;-74
2021/12/17 17:12:49;;;;;;;;;;;7.50;99.90;;;;;;5051997;28;19905;-76
2021/12/17 17:15:15;;;;;;;;;;;7.40;99.90;;;;;;5051466;28;19904;-76
2021/12/17 17:17:41;;;;;;;;;;;8.70;99.90;;;;;;5067675;28;20380;-76
2021/12/17 17:20:07;;;;;;;;;;;7.10;99.90;;;;;;5071018;28;20007;-76
2021/12/17 17:22:33;;;;;;;;;;;7.30;99.90;;;;;;5071668;28;19915;-74
2021/12/17 17:24:58;;;;;;;;;;;6.90;99.90;;;;;;5069162;28;19912;-77
2021/12/17 17:27:24;;;;;;;;;;;7.60;99.90;;;;;;5071652;28;19912;-75
2021/12/17 17:29:50;;;;;;;;;;;7.70;99.90;;;;;;5070950;28;19911;-74
2021/12/17 17:32:15;;;;;;;;;;;7.20;99.90;;;;;;5071513;28;20377;-75
2021/12/17 17:34:41;;;;;;;;;;;7.80;99.90;;;;;;5071769;28;19908;-76
2021/12/17 17:37:07;;;;;;;;;;;6.30;99.90;;;;;;5070399;28;19911;-76
2021/12/17 17:42:00;;;;;;;;;;;6.70;99.90;;;;;;5047783;28;19936;-71
2021/12/17 17:44:26;;;;;;;;;;;7.40;99.90;;;;;;5051185;28;20280;-71
2021/12/17 17:46:53;;;;;;;;;;;7.40;99.90;;;;;;5051059;28;19912;-71